createdAt,value
2018-09-18T00:01:45.507Z,6.37
2018-09-18T00:04:13.155Z,6.03
2018-09-18T00:06:40.550Z,6.37
2018-09-18T00:09:09.088Z,6.77
2018-09-18T00:11:36.507Z,6.80
2018-09-18T00:14:04.123Z,6.87
2018-09-18T00:16:31.655Z,6.10
2018-09-18T00:18:59.072Z,6.07
2018-09-18T00:21:26.499Z,6.10
2018-09-18T00:23:53.977Z,6.33
2018-09-18T00:26:21.420Z,6.13
2018-09-18T00:28:48.869Z,6.20
2018-09-18T00:31:16.254Z,5.80
2018-09-18T00:33:43.667Z,6.20
2018-09-18T00:36:11.135Z,6.00
2018-09-18T00:38:38.665Z,6.07
2018-09-18T00:41:06.088Z,6.20
2018-09-18T00:43:33.483Z,6.50
2018-09-18T00:46:00.905Z,6.27
2018-09-18T00:48:28.324Z,6.40
2018-09-18T00:50:55.747Z,6.70
2018-09-18T00:53:23.165Z,6.30
2018-09-18T00:55:50.582Z,6.83
2018-09-18T00:58:18.038Z,6.63
2018-09-18T01:00:45.611Z,6.23
2018-09-18T01:03:13.034Z,6.27
2018-09-18T01:05:40.446Z,6.60
2018-09-18T01:08:07.844Z,6.43
2018-09-18T01:10:35.338Z,6.87
2018-09-18T01:13:02.724Z,6.47
2018-09-18T01:15:30.210Z,7.00
2018-09-18T01:17:57.631Z,6.60
2018-09-18T01:20:25.068Z,6.43
2018-09-18T01:22:52.476Z,6.50
2018-09-18T01:25:19.935Z,6.30
2018-09-18T01:27:47.352Z,6.57
2018-09-18T01:30:14.762Z,6.33
2018-09-18T01:32:42.184Z,6.70
2018-09-18T01:35:09.596Z,6.30
2018-09-18T01:37:37.014Z,6.17
2018-09-18T01:40:04.850Z,6.90
2018-09-18T01:42:32.264Z,6.23
2018-09-18T01:44:59.679Z,6.63
2018-09-18T01:47:27.108Z,6.67
2018-09-18T01:49:54.505Z,6.30
2018-09-18T01:52:21.888Z,6.73
2018-09-18T01:54:49.299Z,6.73
2018-09-18T01:57:16.788Z,6.47
2018-09-18T01:59:44.245Z,6.47
2018-09-18T02:02:11.712Z,6.20
2018-09-18T02:04:39.114Z,6.83
2018-09-18T02:07:06.573Z,6.63
2018-09-18T02:09:33.982Z,6.40
2018-09-18T02:12:01.414Z,6.37
2018-09-18T02:14:28.854Z,6.60
2018-09-18T02:16:56.340Z,6.43
2018-09-18T02:19:23.748Z,6.93
2018-09-18T02:21:51.167Z,6.67
2018-09-18T02:24:18.570Z,6.80
2018-09-18T02:26:45.992Z,7.07
2018-09-18T02:29:13.424Z,7.10
2018-09-18T02:31:40.879Z,6.70
2018-09-18T02:34:08.269Z,6.27
2018-09-18T02:36:35.690Z,6.87
2018-09-18T02:39:04.992Z,6.33
2018-09-18T02:41:32.513Z,6.27
2018-09-18T02:43:59.941Z,6.50
2018-09-18T02:46:27.383Z,6.60
2018-09-18T02:48:54.810Z,6.40
2018-09-18T02:51:22.237Z,6.80
2018-09-18T02:53:49.673Z,6.37
2018-09-18T02:56:17.107Z,6.10
2018-09-18T02:58:44.497Z,6.90
2018-09-18T03:01:11.910Z,6.77
2018-09-18T03:03:39.299Z,6.90
2018-09-18T03:06:06.715Z,6.73
2018-09-18T03:08:34.155Z,6.47
2018-09-18T03:11:01.557Z,6.63
2018-09-18T03:13:29.090Z,6.43
2018-09-18T03:15:56.477Z,6.27
2018-09-18T03:18:23.938Z,6.67
2018-09-18T03:20:51.389Z,6.83
2018-09-18T03:23:18.881Z,6.90
2018-09-18T03:25:46.277Z,6.73
2018-09-18T03:28:13.735Z,6.60
2018-09-18T03:30:41.139Z,6.80
2018-09-18T03:33:08.633Z,6.63
2018-09-18T03:35:36.100Z,7.07
2018-09-18T03:38:03.502Z,7.10
2018-09-18T03:40:30.897Z,6.50
2018-09-18T03:42:58.293Z,7.20
2018-09-18T03:45:25.709Z,6.67
2018-09-18T03:47:53.081Z,6.83
2018-09-18T03:50:20.493Z,6.97
2018-09-18T03:52:47.889Z,6.90
2018-09-18T03:55:15.325Z,6.80
2018-09-18T03:57:42.716Z,6.93
2018-09-18T04:00:10.125Z,7.00
2018-09-18T04:02:37.560Z,6.57
2018-09-18T04:05:05.143Z,6.80
2018-09-18T04:07:33.184Z,7.33
2018-09-18T04:10:00.620Z,7.20
2018-09-18T04:12:28.023Z,6.93
2018-09-18T04:14:55.452Z,6.93
2018-09-18T04:17:23.236Z,7.17
2018-09-18T04:19:50.697Z,6.97
2018-09-18T04:22:18.120Z,7.40
2018-09-18T04:24:45.514Z,6.90
2018-09-18T04:27:12.921Z,6.67
2018-09-18T04:29:40.338Z,7.00
2018-09-18T04:32:07.817Z,6.80
2018-09-18T04:34:35.231Z,7.07
2018-09-18T04:37:02.641Z,7.20
2018-09-18T04:39:30.034Z,7.73
2018-09-18T04:41:57.480Z,7.20
2018-09-18T04:44:24.895Z,7.13
2018-09-18T04:46:52.335Z,6.93
2018-09-18T04:49:19.846Z,6.90
2018-09-18T04:51:47.354Z,7.50
2018-09-18T04:54:14.765Z,6.70
2018-09-18T04:56:42.215Z,7.53
2018-09-18T04:59:09.622Z,7.80
2018-09-18T05:01:37.168Z,7.00
2018-09-18T05:04:04.572Z,7.03
2018-09-18T05:06:32.210Z,7.13
2018-09-18T05:08:59.630Z,7.30
2018-09-18T05:11:27.038Z,7.33
2018-09-18T05:13:54.472Z,7.17
2018-09-18T05:16:21.912Z,7.17
2018-09-18T05:18:49.320Z,7.53
2018-09-18T05:21:16.742Z,7.00
2018-09-18T05:23:44.162Z,7.07
2018-09-18T05:26:11.557Z,7.00
2018-09-18T05:28:39.302Z,6.47
2018-09-18T05:31:06.736Z,6.77
2018-09-18T05:33:34.283Z,7.00
2018-09-18T05:36:01.673Z,6.93
2018-09-18T05:38:29.102Z,6.93
2018-09-18T05:40:56.534Z,6.97
2018-09-18T05:43:23.931Z,6.47
2018-09-18T05:45:51.410Z,6.70
2018-09-18T05:48:18.855Z,6.57
2018-09-18T05:50:46.297Z,6.50
2018-09-18T05:53:13.797Z,7.03
2018-09-18T05:55:41.554Z,6.80
2018-09-18T05:58:09.024Z,6.47
2018-09-18T06:00:36.457Z,6.70
2018-09-18T06:03:03.910Z,6.00
2018-09-18T06:05:31.326Z,6.00
2018-09-18T06:07:58.779Z,6.10
2018-09-18T06:10:26.436Z,6.50
2018-09-18T06:12:53.857Z,6.33
2018-09-18T06:15:21.295Z,6.60
2018-09-18T06:17:48.713Z,6.53
2018-09-18T06:20:16.090Z,6.33
2018-09-18T06:22:43.645Z,6.00
2018-09-18T06:25:11.057Z,6.93
2018-09-18T06:27:38.487Z,6.50
2018-09-18T06:30:06.127Z,6.40
2018-09-18T06:32:33.557Z,6.47
2018-09-18T06:35:00.975Z,6.23
2018-09-18T06:37:28.407Z,6.47
2018-09-18T06:39:55.835Z,6.60
2018-09-18T06:42:23.292Z,6.57
2018-09-18T06:44:50.751Z,5.77
2018-09-18T06:47:18.253Z,6.80
2018-09-18T06:49:45.693Z,6.23
2018-09-18T06:52:13.222Z,6.50
2018-09-18T06:54:40.643Z,6.30
2018-09-18T06:57:08.226Z,6.60
2018-09-18T06:59:35.659Z,6.43
2018-09-18T07:02:03.305Z,6.57
2018-09-18T07:04:30.794Z,6.60
2018-09-18T07:06:58.217Z,6.27
2018-09-18T07:09:25.754Z,6.10
2018-09-18T07:11:53.343Z,6.30
2018-09-18T07:14:20.780Z,6.27
2018-09-18T07:16:48.274Z,7.40
2018-09-18T07:19:16.311Z,7.03
2018-09-18T07:21:43.738Z,6.30
2018-09-18T07:24:11.170Z,6.63
2018-09-18T07:26:38.606Z,6.10
2018-09-18T07:29:06.008Z,6.50
2018-09-18T07:31:33.430Z,6.83
2018-09-18T07:34:00.847Z,6.27
2018-09-18T07:36:28.298Z,6.90
2018-09-18T07:38:55.731Z,6.60
2018-09-18T07:41:23.452Z,6.30
2018-09-18T07:43:50.837Z,6.20
2018-09-18T07:46:18.302Z,6.27
2018-09-18T07:48:45.690Z,6.67
2018-09-18T07:51:13.104Z,6.03
2018-09-18T07:53:40.538Z,6.10
2018-09-18T07:56:07.964Z,6.50
2018-09-18T07:58:35.384Z,7.00
2018-09-18T08:01:02.809Z,5.83
2018-09-18T08:03:30.463Z,6.70
2018-09-18T08:05:57.897Z,6.27
2018-09-18T08:08:25.321Z,6.20
2018-09-18T08:10:52.763Z,6.20
2018-09-18T08:13:20.187Z,6.50
2018-09-18T08:15:47.852Z,6.40
2018-09-18T08:18:15.289Z,5.93
2018-09-18T08:20:42.709Z,6.37
2018-09-18T08:23:10.547Z,6.17
2018-09-18T08:25:37.987Z,5.77
2018-09-18T08:28:05.437Z,6.20
2018-09-18T08:30:32.859Z,5.60
2018-09-18T08:33:00.297Z,6.40
2018-09-18T08:35:27.758Z,6.00
2018-09-18T08:37:55.410Z,5.87
2018-09-18T08:40:22.886Z,6.10
2018-09-18T08:42:50.327Z,5.57
2018-09-18T08:45:17.773Z,5.80
2018-09-18T08:47:45.338Z,5.73
2018-09-18T08:50:12.771Z,5.70
2018-09-18T08:52:40.237Z,6.00
2018-09-18T08:55:07.646Z,5.50
2018-09-18T08:57:35.131Z,5.03
2018-09-18T09:00:02.658Z,5.37
2018-09-18T09:02:30.073Z,5.57
2018-09-18T09:04:57.662Z,5.67
2018-09-18T09:07:25.087Z,5.53
2018-09-18T09:09:52.509Z,5.83
2018-09-18T09:12:19.937Z,5.27
2018-09-18T09:14:47.435Z,5.40
2018-09-18T09:17:19.067Z,5.60
2018-09-18T09:19:46.477Z,5.57
2018-09-18T09:22:13.978Z,5.70
2018-09-18T09:24:41.492Z,5.30
2018-09-18T09:27:08.940Z,5.33
2018-09-18T09:29:36.407Z,5.27
2018-09-18T09:32:03.884Z,5.70
2018-09-18T09:34:31.260Z,5.47
2018-09-18T09:36:58.738Z,5.33
2018-09-18T09:39:26.137Z,5.77
2018-09-18T09:41:53.550Z,5.33
2018-09-18T09:44:20.957Z,5.37
2018-09-18T09:46:48.406Z,5.50
2018-09-18T09:49:15.814Z,5.40
2018-09-18T09:51:43.396Z,5.10
2018-09-18T09:54:10.696Z,5.43
2018-09-18T09:56:38.152Z,5.90
2018-09-18T09:59:05.579Z,5.63
2018-09-18T10:01:38.724Z,5.83
2018-09-18T10:04:06.129Z,5.73
2018-09-18T10:06:33.542Z,5.47
2018-09-18T10:09:00.944Z,5.33
2018-09-18T10:11:28.403Z,5.30
2018-09-18T10:13:55.811Z,5.77
2018-09-18T10:16:23.282Z,5.53
2018-09-18T10:18:50.733Z,5.47
2018-09-18T10:21:18.155Z,5.37
2018-09-18T10:23:45.660Z,5.13
2018-09-18T10:26:13.219Z,4.93
2018-09-18T10:28:40.554Z,5.10
2018-09-18T10:31:07.965Z,5.23
2018-09-18T10:33:35.463Z,4.90
2018-09-18T10:36:02.899Z,4.80
2018-09-18T10:38:30.363Z,4.97
2018-09-18T10:40:57.825Z,5.20
2018-09-18T10:43:25.217Z,4.93
2018-09-18T10:45:52.652Z,5.20
2018-09-18T10:48:20.087Z,4.97
2018-09-18T10:50:47.479Z,5.37
2018-09-18T10:53:14.878Z,4.78
2018-09-18T10:55:42.287Z,5.10
2018-09-18T10:58:09.717Z,4.70
2018-09-18T11:00:37.187Z,5.00
2018-09-18T11:03:04.678Z,5.17
2018-09-18T11:05:32.078Z,4.60
2018-09-18T11:07:59.591Z,4.80
2018-09-18T11:10:26.908Z,4.53
2018-09-18T11:12:54.374Z,4.42
2018-09-18T11:15:21.825Z,4.47
2018-09-18T11:17:49.301Z,4.67
2018-09-18T11:20:16.702Z,4.75
2018-09-18T11:22:44.212Z,4.58
2018-09-18T11:25:11.699Z,4.42
2018-09-18T11:27:39.068Z,4.62
2018-09-18T11:30:06.590Z,4.25
2018-09-18T11:32:34.018Z,4.35
2018-09-18T11:35:01.460Z,4.50
2018-09-18T11:37:28.922Z,4.55
2018-09-18T11:39:56.775Z,4.20
2018-09-18T11:42:24.150Z,4.33
2018-09-18T11:44:51.574Z,4.12
2018-09-18T11:47:18.976Z,4.25
2018-09-18T11:49:46.480Z,4.42
2018-09-18T11:52:13.886Z,4.75
2018-09-18T11:54:41.360Z,4.33
2018-09-18T11:57:08.863Z,4.42
2018-09-18T11:59:36.230Z,4.12
2018-09-18T12:02:03.762Z,4.42
2018-09-18T12:04:31.145Z,4.55
2018-09-18T12:06:58.546Z,3.98
2018-09-18T12:09:25.964Z,4.40
2018-09-18T12:11:53.389Z,4.12
2018-09-18T12:14:20.782Z,4.35
2018-09-18T12:16:48.257Z,4.10
2018-09-18T12:19:15.673Z,4.08
2018-09-18T12:21:43.112Z,4.00
2018-09-18T12:24:10.538Z,4.22
2018-09-18T12:26:37.976Z,3.95
2018-09-18T12:29:05.458Z,4.30
2018-09-18T12:31:32.904Z,4.30
2018-09-18T12:34:00.311Z,3.87
2018-09-18T12:36:27.771Z,3.98
2018-09-18T12:38:55.181Z,3.95
2018-09-18T12:41:22.651Z,4.35
2018-09-18T12:43:50.032Z,4.30
2018-09-18T12:46:17.445Z,4.20
2018-09-18T12:48:44.902Z,4.42
2018-09-18T12:51:12.327Z,4.33
2018-09-18T12:53:39.765Z,4.00
2018-09-18T12:56:07.230Z,4.37
2018-09-18T12:58:34.714Z,4.15
2018-09-18T13:01:02.083Z,4.30
2018-09-18T13:03:29.529Z,4.17
2018-09-18T13:05:57.030Z,3.75
2018-09-18T13:08:24.789Z,4.20
2018-09-18T13:10:52.223Z,4.22
2018-09-18T13:13:19.679Z,3.85
2018-09-18T13:15:47.160Z,3.60
2018-09-18T13:18:14.638Z,3.90
2018-09-18T13:20:42.122Z,4.12
2018-09-18T13:23:09.563Z,4.12
2018-09-18T13:25:36.985Z,4.03
2018-09-18T13:28:04.418Z,3.87
2018-09-18T13:30:31.906Z,3.95
2018-09-18T13:32:59.257Z,3.83
2018-09-18T13:35:26.707Z,4.17
2018-09-18T13:37:54.179Z,4.08
2018-09-18T13:40:21.609Z,3.72
2018-09-18T13:42:49.031Z,4.17
2018-09-18T13:45:16.483Z,3.80
2018-09-18T13:47:43.888Z,3.87
2018-09-18T13:50:11.336Z,4.15
2018-09-18T13:52:38.744Z,3.72
2018-09-18T13:55:06.467Z,3.87
2018-09-18T13:57:33.994Z,4.28
2018-09-18T14:00:01.455Z,4.05
2018-09-18T14:02:28.981Z,4.30
2018-09-18T14:04:56.477Z,4.00
2018-09-18T14:07:23.949Z,3.87
2018-09-18T14:09:51.492Z,4.15
2018-09-18T14:12:19.658Z,3.92
2018-09-18T14:14:47.211Z,3.98
2018-09-18T14:17:14.533Z,4.40
2018-09-18T14:19:41.982Z,4.30
2018-09-18T14:22:13.243Z,4.10
2018-09-18T14:24:40.676Z,4.23
2018-09-18T14:27:08.111Z,4.10
2018-09-18T14:29:35.539Z,4.20
2018-09-18T14:32:02.982Z,4.47
2018-09-18T14:34:30.368Z,4.40
2018-09-18T14:36:57.843Z,4.50
2018-09-18T14:39:25.308Z,4.50
2018-09-18T14:41:52.752Z,4.47
2018-09-18T14:44:20.182Z,4.60
2018-09-18T14:46:47.607Z,4.47
2018-09-18T14:49:15.047Z,4.47
2018-09-18T14:51:42.494Z,4.63
2018-09-18T14:54:09.891Z,4.63
2018-09-18T14:56:37.378Z,5.13
2018-09-18T14:59:05.096Z,4.90
2018-09-18T15:01:32.588Z,4.73
2018-09-18T15:04:00.037Z,4.47
2018-09-18T15:06:27.484Z,4.13
2018-09-18T15:08:54.881Z,4.53
2018-09-18T15:11:22.287Z,4.80
2018-09-18T15:13:49.689Z,5.00
2018-09-18T15:16:17.154Z,4.50
2018-09-18T15:18:44.629Z,4.80
2018-09-18T15:21:12.088Z,4.70
2018-09-18T15:23:39.527Z,5.37
2018-09-18T15:26:07.337Z,5.17
2018-09-18T15:28:34.768Z,4.80
2018-09-18T15:31:02.227Z,5.03
2018-09-18T15:33:29.666Z,5.13
2018-09-18T15:35:57.083Z,4.73
2018-09-18T15:38:24.499Z,4.83
2018-09-18T15:40:51.922Z,4.53
2018-09-18T15:43:19.363Z,4.87
2018-09-18T15:45:46.829Z,4.90
2018-09-18T15:48:14.262Z,4.60
2018-09-18T15:50:41.728Z,4.83
2018-09-18T15:53:09.305Z,5.10
2018-09-18T15:55:36.781Z,4.60
2018-09-18T15:58:04.298Z,4.33
2018-09-18T16:00:31.753Z,4.67
2018-09-18T16:02:59.211Z,4.33
2018-09-18T16:05:26.678Z,4.97
2018-09-18T16:07:54.131Z,4.33
2018-09-18T16:10:21.621Z,4.13
2018-09-18T16:12:49.041Z,4.30
2018-09-18T16:15:16.483Z,4.37
2018-09-18T16:17:43.907Z,4.73
2018-09-18T16:20:11.365Z,4.70
2018-09-18T16:22:38.747Z,4.53
2018-09-18T16:25:06.187Z,4.23
2018-09-18T16:27:33.671Z,4.40
2018-09-18T16:30:01.095Z,4.37
2018-09-18T16:32:28.528Z,4.00
2018-09-18T16:34:55.946Z,4.30
2018-09-18T16:37:23.370Z,4.30
2018-09-18T16:39:50.835Z,5.50
2018-09-18T16:42:18.244Z,5.30
2018-09-18T16:44:45.716Z,4.30
2018-09-18T16:47:13.115Z,4.60
2018-09-18T16:49:40.555Z,4.60
2018-09-18T16:54:35.610Z,4.80
2018-09-18T16:57:02.902Z,4.30
2018-09-18T16:59:30.378Z,4.20
2018-09-18T17:01:58.640Z,4.53
2018-09-18T17:04:26.748Z,4.50
2018-09-18T17:06:54.652Z,4.10
2018-09-18T17:09:22.096Z,3.83
2018-09-18T17:11:49.574Z,3.90
2018-09-18T17:14:17.028Z,4.17
2018-09-18T17:16:44.474Z,3.90
2018-09-18T17:19:11.946Z,3.73
2018-09-18T17:21:39.390Z,4.10
2018-09-18T17:24:06.822Z,3.87
2018-09-18T17:26:34.278Z,3.70
2018-09-18T17:29:02.055Z,3.43
2018-09-18T17:31:29.545Z,3.23
2018-09-18T17:33:57.014Z,3.20
2018-09-18T17:36:24.541Z,3.10
2018-09-18T17:38:52.111Z,3.20
2018-09-18T17:41:19.729Z,3.00
2018-09-18T17:43:47.278Z,2.63
2018-09-18T17:46:14.787Z,2.80
2018-09-18T17:48:42.233Z,2.70
2018-09-18T17:51:09.728Z,2.70
2018-09-18T17:53:37.289Z,2.60
2018-09-18T17:56:04.722Z,2.60
2018-09-18T17:58:32.127Z,2.70
2018-09-18T18:00:59.594Z,2.50
2018-09-18T18:03:28.238Z,2.60
2018-09-18T18:05:55.673Z,2.70
2018-09-18T18:08:23.847Z,2.60
2018-09-18T18:10:51.338Z,2.70
2018-09-18T18:13:18.765Z,2.60
2018-09-18T18:15:46.201Z,2.83
2018-09-18T18:18:13.667Z,2.57
2018-09-18T18:20:41.101Z,2.50
2018-09-18T18:23:08.570Z,2.50
2018-09-18T18:25:36.079Z,2.60
2018-09-18T18:28:03.554Z,2.60
2018-09-18T18:30:30.980Z,2.50
2018-09-18T18:32:58.387Z,2.37
2018-09-18T18:35:25.832Z,2.70
2018-09-18T18:37:53.408Z,2.40
2018-09-18T18:40:20.826Z,2.60
2018-09-18T18:42:48.265Z,2.50
2018-09-18T18:45:15.699Z,2.40
2018-09-18T18:47:43.350Z,2.53
2018-09-18T18:50:10.732Z,2.60
2018-09-18T18:52:38.191Z,2.20
2018-09-18T18:55:05.719Z,2.57
2018-09-18T18:57:33.120Z,2.30
2018-09-18T19:00:00.593Z,2.20
2018-09-18T19:02:28.046Z,2.40
2018-09-18T19:04:55.590Z,2.40
2018-09-18T19:07:23.028Z,2.30
2018-09-18T19:09:50.500Z,2.40
2018-09-18T19:12:18.059Z,2.23
2018-09-18T19:14:45.463Z,2.27
2018-09-18T19:17:13.014Z,2.10
2018-09-18T19:19:40.460Z,2.30
2018-09-18T19:22:07.971Z,2.33
2018-09-18T19:24:35.408Z,2.30
2018-09-18T19:27:02.846Z,2.20
2018-09-18T19:29:30.300Z,2.27
2018-09-18T19:31:57.740Z,2.30
2018-09-18T19:34:25.220Z,2.20
2018-09-18T19:36:52.749Z,2.10
2018-09-18T19:39:20.303Z,2.10
2018-09-18T19:41:47.683Z,2.20
2018-09-18T19:44:15.151Z,2.20
2018-09-18T19:46:42.559Z,2.37
2018-09-18T19:49:10.011Z,2.37
2018-09-18T19:51:37.484Z,2.50
2018-09-18T19:54:04.944Z,2.20
2018-09-18T19:56:32.410Z,2.30
2018-09-18T19:58:59.876Z,2.23
2018-09-18T20:01:27.334Z,2.40
2018-09-18T20:03:54.781Z,2.17
2018-09-18T20:06:22.243Z,2.20
2018-09-18T20:08:49.677Z,2.20
2018-09-18T20:11:17.102Z,2.33
2018-09-18T20:13:44.528Z,2.33
2018-09-18T20:16:12.007Z,2.20
2018-09-18T20:18:39.436Z,2.33
2018-09-18T20:21:07.543Z,2.03
2018-09-18T20:23:34.980Z,2.07
2018-09-18T20:26:02.432Z,1.90
2018-09-18T20:28:29.834Z,2.00
2018-09-18T20:30:57.281Z,2.00
2018-09-18T20:33:25.177Z,2.10
2018-09-18T20:35:52.666Z,2.20
2018-09-18T20:38:20.068Z,1.90
2018-09-18T20:40:47.504Z,2.00
2018-09-18T20:43:14.939Z,2.00
2018-09-18T20:45:42.423Z,1.90
2018-09-18T20:48:09.873Z,1.80
2018-09-18T20:50:37.335Z,1.70
2018-09-18T20:53:04.759Z,1.83
2018-09-18T20:55:32.234Z,1.90
2018-09-18T20:57:59.713Z,1.70
2018-09-18T21:00:27.148Z,1.80
2018-09-18T21:02:54.537Z,2.00
2018-09-18T21:05:21.955Z,1.73
2018-09-18T21:07:49.357Z,2.07
2018-09-18T21:10:16.803Z,1.80
2018-09-18T21:12:44.321Z,1.70
2018-09-18T21:15:11.939Z,2.00
2018-09-18T21:17:39.369Z,1.63
2018-09-18T21:20:06.816Z,1.90
2018-09-18T21:22:34.256Z,1.80
2018-09-18T21:25:11.486Z,1.90
2018-09-18T21:27:38.927Z,1.83
2018-09-18T21:30:06.419Z,1.90
2018-09-18T21:32:33.995Z,1.90
2018-09-18T21:35:01.397Z,1.90
2018-09-18T21:37:28.893Z,1.97
2018-09-18T21:39:56.486Z,2.03
2018-09-18T21:42:23.923Z,2.00
2018-09-18T21:44:51.373Z,1.77
2018-09-18T21:47:18.803Z,1.80
2018-09-18T21:49:46.198Z,2.07
2018-09-18T21:52:13.653Z,1.90
2018-09-18T21:54:41.091Z,2.00
2018-09-18T21:57:08.537Z,2.13
2018-09-18T21:59:36.175Z,2.20
2018-09-18T22:02:03.640Z,1.90
2018-09-18T22:04:31.047Z,2.00
2018-09-18T22:06:58.591Z,2.03
2018-09-18T22:09:25.927Z,2.07
2018-09-18T22:11:53.382Z,2.10
2018-09-18T22:14:20.810Z,2.10
2018-09-18T22:16:48.230Z,1.93
2018-09-18T22:19:15.671Z,1.87
2018-09-18T22:21:43.105Z,1.70
2018-09-18T22:24:10.560Z,2.00
2018-09-18T22:26:37.966Z,1.97
2018-09-18T22:29:05.392Z,1.83
2018-09-18T22:31:32.805Z,1.90
2018-09-18T22:34:00.330Z,1.83
2018-09-18T22:36:27.796Z,1.90
2018-09-18T22:38:55.214Z,2.03
2018-09-18T22:41:22.689Z,2.10
2018-09-18T22:43:50.136Z,2.00
2018-09-18T22:46:17.552Z,1.90
2018-09-18T22:48:45.050Z,2.10
2018-09-18T22:51:12.475Z,1.90
2018-09-18T22:53:41.091Z,2.00
2018-09-18T22:56:08.660Z,1.90
2018-09-18T22:58:36.699Z,1.90
2018-09-18T23:01:04.104Z,1.90
2018-09-18T23:03:31.573Z,2.00
2018-09-18T23:05:58.992Z,1.90
2018-09-18T23:08:26.398Z,2.00
2018-09-18T23:10:53.805Z,2.00
2018-09-18T23:13:21.241Z,1.90
2018-09-18T23:15:48.678Z,2.00
2018-09-18T23:18:16.133Z,2.10
2018-09-18T23:20:43.574Z,2.00
2018-09-18T23:23:10.961Z,2.00
2018-09-18T23:25:38.438Z,2.07
2018-09-18T23:28:05.862Z,2.10
2018-09-18T23:30:33.265Z,2.10
2018-09-18T23:33:00.787Z,2.07
2018-09-18T23:35:28.225Z,2.20
2018-09-18T23:37:55.667Z,2.10
2018-09-18T23:40:23.205Z,1.93
2018-09-18T23:42:50.601Z,2.10
2018-09-18T23:45:18.030Z,2.10
2018-09-18T23:47:45.402Z,2.00
2018-09-18T23:50:12.823Z,1.90
2018-09-18T23:52:40.231Z,2.07
2018-09-18T23:55:07.687Z,1.97
2018-09-18T23:57:35.093Z,2.03
